createdAt,value
2018-12-26T00:01:02.898Z,0.30
2018-12-26T00:02:06.490Z,0.30
2018-12-26T00:03:09.508Z,0.30
2018-12-26T00:04:12.427Z,0.24
2018-12-26T00:05:18.225Z,0.22
2018-12-26T00:06:21.152Z,0.27
2018-12-26T00:07:24.095Z,0.27
2018-12-26T00:08:28.411Z,0.28
2018-12-26T00:09:32.044Z,0.28
2018-12-26T00:10:37.636Z,0.30
2018-12-26T00:11:40.869Z,0.25
2018-12-26T00:12:43.841Z,0.20
2018-12-26T00:13:47.460Z,0.12
2018-12-26T00:14:50.390Z,0.10
2018-12-26T00:15:53.301Z,0.10
2018-12-26T00:16:56.283Z,0.09
2018-12-26T00:18:00.555Z,0.06
2018-12-26T00:19:03.623Z,0.06
2018-12-26T00:20:06.663Z,0.09
2018-12-26T00:21:12.328Z,0.09
2018-12-26T00:22:15.278Z,0.10
2018-12-26T00:23:19.049Z,0.11
2018-12-26T00:24:22.363Z,0.10
2018-12-26T00:25:25.387Z,0.04
2018-12-26T00:26:28.431Z,0.04
2018-12-26T00:27:31.400Z,0.04
2018-12-26T00:28:34.353Z,0.03
2018-12-26T00:29:37.349Z,-0.04
2018-12-26T00:30:40.624Z,-0.05
2018-12-26T00:31:43.565Z,-0.06
2018-12-26T00:32:46.567Z,-0.14
2018-12-26T00:33:49.538Z,-0.07
2018-12-26T00:34:52.514Z,-0.07
2018-12-26T00:35:55.462Z,-0.15
2018-12-26T00:37:00.255Z,-0.15
2018-12-26T00:38:03.221Z,-0.15
2018-12-26T00:39:08.427Z,-0.13
2018-12-26T00:40:13.000Z,-0.13
2018-12-26T00:41:16.059Z,-0.09
2018-12-26T00:42:19.015Z,-0.07
2018-12-26T00:43:24.739Z,-0.07
2018-12-26T00:44:27.672Z,-0.12
2018-12-26T00:45:30.639Z,-0.15
2018-12-26T00:46:33.724Z,-0.14
2018-12-26T00:47:36.642Z,-0.14
2018-12-26T00:48:39.581Z,-0.14
2018-12-26T00:49:42.828Z,-0.11
2018-12-26T00:50:45.783Z,-0.05
2018-12-26T00:51:49.130Z,-0.05
2018-12-26T00:52:52.614Z,-0.07
2018-12-26T00:53:55.582Z,-0.11
2018-12-26T00:55:02.696Z,-0.11
2018-12-26T00:56:10.373Z,-0.14
2018-12-26T00:57:11.460Z,-0.11
2018-12-26T00:58:14.400Z,-0.09
2018-12-26T00:59:17.364Z,-0.16
2018-12-26T01:00:20.372Z,-0.23
2018-12-26T01:01:23.343Z,-0.30
2018-12-26T01:02:26.556Z,-0.30
2018-12-26T01:03:29.488Z,-0.38
2018-12-26T01:04:33.634Z,-0.38
2018-12-26T01:05:38.075Z,-0.30
2018-12-26T01:06:42.437Z,-0.32
2018-12-26T01:07:45.458Z,-0.43
2018-12-26T01:08:51.140Z,-0.40
2018-12-26T01:09:56.048Z,-0.39
2018-12-26T01:10:58.821Z,-0.40
2018-12-26T01:12:04.184Z,-0.44
2018-12-26T01:13:07.130Z,-0.53
2018-12-26T01:14:10.105Z,-0.54
2018-12-26T01:15:13.371Z,-0.48
2018-12-26T01:16:16.394Z,-0.48
2018-12-26T01:17:23.923Z,-0.33
2018-12-26T01:18:27.134Z,-0.33
2018-12-26T01:19:30.543Z,-0.25
2018-12-26T01:20:35.295Z,-0.24
2018-12-26T01:21:41.185Z,-0.20
2018-12-26T01:22:46.168Z,-0.17
2018-12-26T01:23:48.736Z,-0.17
2018-12-26T01:24:51.681Z,-0.08
2018-12-26T01:25:57.764Z,-0.24
2018-12-26T01:27:00.692Z,-0.24
2018-12-26T01:28:03.935Z,-0.24
2018-12-26T01:29:07.977Z,-0.19
2018-12-26T01:30:13.581Z,-0.05
2018-12-26T01:31:23.174Z,-0.02
2018-12-26T01:32:25.722Z,-0.02
2018-12-26T01:33:28.678Z,0.00
2018-12-26T01:34:32.125Z,0.00
2018-12-26T01:35:39.323Z,-0.04
2018-12-26T01:36:42.290Z,-0.04
2018-12-26T01:37:45.333Z,-0.01
2018-12-26T01:38:48.269Z,-0.01
2018-12-26T01:39:51.236Z,0.01
2018-12-26T01:40:58.148Z,0.09
2018-12-26T01:42:00.765Z,0.12
2018-12-26T01:43:03.736Z,0.12
2018-12-26T01:44:06.688Z,0.06
2018-12-26T01:45:10.088Z,0.06
2018-12-26T01:46:15.826Z,0.04
2018-12-26T01:47:19.181Z,-0.09
2018-12-26T01:48:28.088Z,-0.08
2018-12-26T01:49:26.722Z,-0.01
2018-12-26T01:50:29.683Z,-0.01
2018-12-26T01:51:32.747Z,-0.07
2018-12-26T01:52:38.445Z,-0.14
2018-12-26T01:53:41.720Z,-0.21
2018-12-26T01:54:44.739Z,-0.33
2018-12-26T01:55:51.403Z,-0.35
2018-12-26T01:56:56.858Z,-0.35
2018-12-26T01:57:59.829Z,-0.53
2018-12-26T01:59:02.761Z,-0.57
2018-12-26T02:00:08.579Z,-0.58
2018-12-26T02:01:11.559Z,-0.62
2018-12-26T02:02:14.504Z,-0.62
2018-12-26T02:03:17.538Z,-0.68
2018-12-26T02:04:22.451Z,-0.68
2018-12-26T02:05:25.478Z,-0.49
2018-12-26T02:06:35.681Z,-0.43
2018-12-26T02:07:38.619Z,-0.45
2018-12-26T02:08:41.657Z,-0.45
2018-12-26T02:09:44.615Z,-0.36
2018-12-26T02:10:49.172Z,-0.36
2018-12-26T02:11:52.461Z,-0.36
2018-12-26T02:12:55.448Z,-0.50
2018-12-26T02:13:58.391Z,-0.39
2018-12-26T02:15:02.919Z,-0.39
2018-12-26T02:16:11.279Z,-0.53
2018-12-26T02:17:14.330Z,-0.67
2018-12-26T02:18:19.725Z,-0.65
2018-12-26T02:19:24.816Z,-0.46
2018-12-26T02:20:29.884Z,-0.46
2018-12-26T02:21:32.881Z,-0.43
2018-12-26T02:22:36.284Z,-0.42
2018-12-26T02:23:39.316Z,-0.42
2018-12-26T02:24:42.567Z,-0.36
2018-12-26T02:25:45.988Z,-0.36
2018-12-26T02:26:48.972Z,-0.43
2018-12-26T02:27:52.021Z,-0.53
2018-12-26T02:28:54.968Z,-0.53
2018-12-26T02:29:58.207Z,-0.66
2018-12-26T02:31:01.468Z,-0.61
2018-12-26T02:32:06.862Z,-0.61
2018-12-26T02:33:10.755Z,-0.49
2018-12-26T02:34:14.159Z,-0.49
2018-12-26T02:35:19.338Z,-0.41
2018-12-26T02:36:22.300Z,-0.36
2018-12-26T02:37:26.822Z,-0.30
2018-12-26T02:38:29.831Z,-0.33
2018-12-26T02:39:32.764Z,-0.26
2018-12-26T02:40:36.754Z,-0.23
2018-12-26T02:41:39.684Z,-0.19
2018-12-26T02:42:42.600Z,-0.18
2018-12-26T02:43:45.970Z,-0.18
2018-12-26T02:44:48.997Z,-0.26
2018-12-26T02:45:52.388Z,-0.26
2018-12-26T02:46:55.438Z,-0.39
2018-12-26T02:47:58.357Z,-0.39
2018-12-26T02:49:01.352Z,-0.31
2018-12-26T02:50:04.678Z,-0.38
2018-12-26T02:51:07.635Z,-0.37
2018-12-26T02:52:10.579Z,-0.42
2018-12-26T02:53:13.459Z,-0.42
2018-12-26T02:54:16.375Z,-0.38
2018-12-26T02:55:19.327Z,-0.32
2018-12-26T02:56:22.610Z,-0.24
2018-12-26T02:57:25.983Z,-0.24
2018-12-26T02:58:28.919Z,-0.24
2018-12-26T02:59:31.842Z,-0.26
2018-12-26T03:00:34.875Z,-0.23
2018-12-26T03:01:37.858Z,-0.23
2018-12-26T03:02:41.072Z,-0.37
2018-12-26T03:03:44.011Z,-0.33
2018-12-26T03:04:47.396Z,-0.20
2018-12-26T03:05:50.320Z,-0.18
2018-12-26T03:06:53.319Z,-0.18
2018-12-26T03:07:56.310Z,-0.17
2018-12-26T03:09:05.658Z,-0.09
2018-12-26T03:10:08.656Z,-0.16
2018-12-26T03:11:14.607Z,-0.35
2018-12-26T03:12:17.570Z,-0.41
2018-12-26T03:13:20.575Z,-0.55
2018-12-26T03:14:23.510Z,-0.90
2018-12-26T03:15:26.744Z,-0.90
2018-12-26T03:16:29.698Z,-1.09
2018-12-26T03:17:34.198Z,-1.11
2018-12-26T03:18:37.189Z,-0.92
2018-12-26T03:19:40.142Z,-0.88
2018-12-26T03:20:43.106Z,-0.81
2018-12-26T03:21:46.772Z,-0.81
2018-12-26T03:22:49.702Z,-0.63
2018-12-26T03:23:52.681Z,-0.79
2018-12-26T03:24:55.608Z,-0.79
2018-12-26T03:25:58.637Z,-0.67
2018-12-26T03:27:01.993Z,-0.41
2018-12-26T03:28:05.212Z,-0.40
2018-12-26T03:29:08.179Z,-0.49
2018-12-26T03:30:11.101Z,-0.57
2018-12-26T03:31:14.150Z,-0.62
2018-12-26T03:32:17.067Z,-0.62
2018-12-26T03:33:19.993Z,-0.58
2018-12-26T03:34:23.215Z,-0.52
2018-12-26T03:35:26.184Z,-0.39
2018-12-26T03:36:29.090Z,-0.39
2018-12-26T03:37:32.568Z,-0.42
2018-12-26T03:38:35.420Z,-0.40
2018-12-26T03:39:38.328Z,-0.40
2018-12-26T03:40:41.561Z,-0.26
2018-12-26T03:41:44.491Z,-0.40
2018-12-26T03:42:47.518Z,-0.52
2018-12-26T03:43:56.745Z,-0.52
2018-12-26T03:44:59.669Z,-0.64
2018-12-26T03:46:03.082Z,-0.79
2018-12-26T03:47:06.303Z,-0.73
2018-12-26T03:48:09.321Z,-0.73
2018-12-26T03:49:12.242Z,-0.80
2018-12-26T03:50:15.121Z,-0.72
2018-12-26T03:51:18.158Z,-0.70
2018-12-26T03:52:21.505Z,-0.64
2018-12-26T03:53:24.765Z,-0.53
2018-12-26T03:54:27.713Z,-0.53
2018-12-26T03:55:30.616Z,-0.48
2018-12-26T03:56:33.753Z,-0.38
2018-12-26T03:57:36.730Z,-0.38
2018-12-26T03:58:40.115Z,-0.25
2018-12-26T03:59:43.343Z,-0.27
2018-12-26T04:00:46.217Z,-0.31
2018-12-26T04:01:49.090Z,-0.44
2018-12-26T04:02:54.558Z,-0.44
2018-12-26T04:03:57.516Z,-0.38
2018-12-26T04:05:00.841Z,-0.37
2018-12-26T04:06:04.039Z,-0.36
2018-12-26T04:07:06.984Z,-0.33
2018-12-26T04:08:09.972Z,-0.31
2018-12-26T04:09:12.956Z,-0.26
2018-12-26T04:10:15.938Z,-0.28
2018-12-26T04:11:19.312Z,-0.26
2018-12-26T04:12:24.372Z,-0.26
2018-12-26T04:13:27.877Z,-0.38
2018-12-26T04:14:30.784Z,-0.52
2018-12-26T04:15:33.813Z,-0.57
2018-12-26T04:16:36.728Z,-0.54
2018-12-26T04:17:39.639Z,-0.58
2018-12-26T04:18:42.911Z,-0.76
2018-12-26T04:19:45.863Z,-0.67
2018-12-26T04:20:48.771Z,-0.67
2018-12-26T04:21:51.714Z,-0.64
2018-12-26T04:22:54.628Z,-0.93
2018-12-26T04:23:57.618Z,-0.92
2018-12-26T04:25:00.869Z,-0.97
2018-12-26T04:26:03.780Z,-0.85
2018-12-26T04:27:15.331Z,-0.72
2018-12-26T04:28:11.300Z,-0.72
2018-12-26T04:29:14.297Z,-0.75
2018-12-26T04:30:17.588Z,-0.73
2018-12-26T04:31:20.814Z,-0.67
2018-12-26T04:32:23.739Z,-0.57
2018-12-26T04:33:26.741Z,-0.57
2018-12-26T04:34:29.751Z,-0.52
2018-12-26T04:35:32.968Z,-0.50
2018-12-26T04:36:35.952Z,-0.54
2018-12-26T04:37:39.160Z,-0.62
2018-12-26T04:38:42.102Z,-0.55
2018-12-26T04:39:45.107Z,-0.66
2018-12-26T04:40:48.155Z,-0.69
2018-12-26T04:41:51.437Z,-0.69
2018-12-26T04:42:54.371Z,-0.65
2018-12-26T04:43:57.564Z,-0.58
2018-12-26T04:45:00.576Z,-0.60
2018-12-26T04:46:03.541Z,-0.55
2018-12-26T04:47:06.472Z,-0.54
2018-12-26T04:48:09.443Z,-0.49
2018-12-26T04:49:12.357Z,-0.61
2018-12-26T04:50:18.789Z,-0.94
2018-12-26T04:51:21.727Z,-0.97
2018-12-26T04:52:25.132Z,-0.97
2018-12-26T04:53:28.050Z,-0.91
2018-12-26T04:54:31.523Z,-0.93
2018-12-26T04:55:34.506Z,-0.80
2018-12-26T04:56:39.017Z,-0.76
2018-12-26T04:57:41.920Z,-0.80
2018-12-26T04:58:44.897Z,-0.81
2018-12-26T04:59:47.897Z,-1.00
2018-12-26T05:00:50.820Z,-1.03
2018-12-26T05:01:53.747Z,-0.95
2018-12-26T05:02:56.959Z,-0.94
2018-12-26T05:03:59.927Z,-0.91
2018-12-26T05:05:03.042Z,-0.90
2018-12-26T05:06:06.002Z,-0.86
2018-12-26T05:07:08.914Z,-1.00
2018-12-26T05:08:11.826Z,-1.00
2018-12-26T05:09:17.433Z,-0.87
2018-12-26T05:10:20.425Z,-0.87
2018-12-26T05:11:23.322Z,-0.69
2018-12-26T05:12:26.221Z,-0.67
2018-12-26T05:13:29.388Z,-0.65
2018-12-26T05:14:32.841Z,-0.67
2018-12-26T05:15:37.408Z,-0.66
2018-12-26T05:16:40.328Z,-0.75
2018-12-26T05:17:43.248Z,-0.75
2018-12-26T05:18:46.900Z,-0.75
2018-12-26T05:19:49.879Z,-1.01
2018-12-26T05:20:52.808Z,-1.20
2018-12-26T05:21:56.071Z,-1.30
2018-12-26T05:22:59.006Z,-1.23
2018-12-26T05:24:01.906Z,-1.14
2018-12-26T05:25:04.920Z,-1.11
2018-12-26T05:26:07.878Z,-1.13
2018-12-26T05:27:10.787Z,-1.24
2018-12-26T05:28:13.998Z,-1.24
2018-12-26T05:29:17.271Z,-1.25
2018-12-26T05:30:20.275Z,-1.27
2018-12-26T05:31:23.216Z,-1.16
2018-12-26T05:32:26.233Z,-1.00
2018-12-26T05:33:29.184Z,-1.00
2018-12-26T05:34:32.421Z,-1.06
2018-12-26T05:35:35.882Z,-1.08
2018-12-26T05:36:38.790Z,-1.15
2018-12-26T05:37:41.808Z,-1.15
2018-12-26T05:38:44.751Z,-1.06
2018-12-26T05:39:47.663Z,-1.06
2018-12-26T05:40:50.940Z,-1.09
2018-12-26T05:41:53.884Z,-1.15
2018-12-26T05:42:56.780Z,-1.15
2018-12-26T05:43:59.732Z,-1.04
2018-12-26T05:45:02.689Z,-1.08
2018-12-26T05:46:05.708Z,-1.08
2018-12-26T05:47:08.895Z,-0.99
2018-12-26T05:48:11.907Z,-1.03
2018-12-26T05:49:15.243Z,-1.20
2018-12-26T05:50:18.303Z,-1.20
2018-12-26T05:51:21.312Z,-1.24
2018-12-26T05:52:24.521Z,-1.19
2018-12-26T05:53:27.796Z,-1.19
2018-12-26T05:54:30.692Z,-1.22
2018-12-26T05:55:33.658Z,-1.21
2018-12-26T05:56:36.668Z,-1.21
2018-12-26T05:57:42.913Z,-1.14
2018-12-26T05:58:45.333Z,-1.06
2018-12-26T05:59:48.750Z,-0.97
2018-12-26T06:00:52.197Z,-0.88
2018-12-26T06:01:55.160Z,-0.76
2018-12-26T06:03:00.176Z,-0.81
2018-12-26T06:04:02.818Z,-0.90
2018-12-26T06:05:05.745Z,-0.89
2018-12-26T06:06:09.078Z,-0.85
2018-12-26T06:07:12.019Z,-0.91
2018-12-26T06:08:14.933Z,-0.90
2018-12-26T06:09:17.962Z,-0.91
2018-12-26T06:10:20.875Z,-0.85
2018-12-26T06:11:23.819Z,-0.77
2018-12-26T06:12:27.617Z,-0.67
2018-12-26T06:13:30.524Z,-0.65
2018-12-26T06:14:33.533Z,-0.67
2018-12-26T06:15:36.929Z,-0.78
2018-12-26T06:16:39.845Z,-0.82
2018-12-26T06:17:42.769Z,-0.82
2018-12-26T06:18:46.213Z,-0.86
2018-12-26T06:19:49.201Z,-0.86
2018-12-26T06:20:52.108Z,-0.77
2018-12-26T06:21:55.051Z,-0.88
2018-12-26T06:22:57.960Z,-0.82
2018-12-26T06:24:00.970Z,-0.84
2018-12-26T06:25:04.369Z,-0.86
2018-12-26T06:26:07.284Z,-0.89
2018-12-26T06:27:10.645Z,-0.80
2018-12-26T06:28:13.565Z,-0.77
2018-12-26T06:29:16.490Z,-0.79
2018-12-26T06:43:50.830Z,-0.97
2018-12-26T06:44:53.795Z,-1.02
2018-12-26T06:45:56.805Z,-1.02
2018-12-26T06:46:59.687Z,-0.90
2018-12-26T06:48:02.639Z,-0.85
2018-12-26T06:49:05.858Z,-0.69
2018-12-26T06:50:08.790Z,-0.70
2018-12-26T06:51:11.803Z,-0.72
2018-12-26T06:52:14.690Z,-0.69
2018-12-26T06:53:18.075Z,-0.68
2018-12-26T06:54:21.004Z,-0.67
2018-12-26T06:55:24.235Z,-0.67
2018-12-26T06:56:27.286Z,-0.78
2018-12-26T06:57:30.305Z,-0.86
2018-12-26T06:58:33.681Z,-0.86
2018-12-26T06:59:36.598Z,-0.86
2018-12-26T07:00:40.533Z,-0.92
2018-12-26T07:01:43.743Z,-0.95
2018-12-26T07:02:46.734Z,-0.97
2018-12-26T07:03:49.647Z,-1.01
2018-12-26T07:04:52.590Z,-0.91
2018-12-26T07:05:55.576Z,-0.96
2018-12-26T07:06:58.492Z,-0.90
2018-12-26T07:08:03.349Z,-0.89
2018-12-26T07:09:06.254Z,-0.87
2018-12-26T07:10:09.862Z,-0.76
2018-12-26T07:11:12.799Z,-0.66
2018-12-26T07:12:15.749Z,-0.66
2018-12-26T07:13:18.762Z,-0.44
2018-12-26T07:14:21.971Z,-0.44
2018-12-26T07:15:24.896Z,-0.32
2018-12-26T07:16:27.846Z,-0.39
2018-12-26T07:17:30.728Z,-0.65
2018-12-26T07:18:33.700Z,-0.65
2018-12-26T07:19:37.091Z,-0.48
2018-12-26T07:20:40.312Z,-0.48
2018-12-26T07:21:43.257Z,-0.56
2018-12-26T07:22:46.179Z,-0.67
2018-12-26T07:23:49.191Z,-0.66
2018-12-26T07:24:52.607Z,-0.66
2018-12-26T07:25:55.525Z,-0.58
2018-12-26T07:26:58.744Z,-0.62
2018-12-26T07:28:09.027Z,-0.49
2018-12-26T07:29:08.879Z,-0.39
2018-12-26T07:30:12.256Z,-0.31
2018-12-26T07:31:15.184Z,-0.24
2018-12-26T07:32:18.107Z,-0.21
2018-12-26T07:33:21.562Z,-0.25
2018-12-26T07:34:24.680Z,-0.17
2018-12-26T07:35:30.578Z,-0.11
2018-12-26T07:36:33.515Z,-0.11
2018-12-26T07:37:36.451Z,-0.11
2018-12-26T07:38:39.375Z,-0.15
2018-12-26T07:39:44.243Z,-0.35
2018-12-26T07:40:47.594Z,-0.44
2018-12-26T07:41:50.560Z,-0.43
2018-12-26T07:42:53.461Z,-0.53
2018-12-26T07:43:56.506Z,-0.53
2018-12-26T07:44:59.429Z,-0.63
2018-12-26T07:46:02.663Z,-0.63
2018-12-26T07:47:06.074Z,-0.56
2018-12-26T07:48:08.985Z,-0.58
2018-12-26T07:49:11.998Z,-0.64
2018-12-26T07:50:14.929Z,-0.64
2018-12-26T07:51:17.843Z,-0.60
2018-12-26T07:52:21.233Z,-0.63
2018-12-26T07:53:24.248Z,-0.63
2018-12-26T07:54:27.165Z,-0.65
2018-12-26T07:55:30.086Z,-0.58
2018-12-26T07:56:33.004Z,-0.47
2018-12-26T07:57:36.012Z,-0.42
2018-12-26T07:58:39.344Z,-0.27
2018-12-26T07:59:42.300Z,-0.27
2018-12-26T08:00:46.099Z,-0.34
2018-12-26T08:01:49.123Z,-0.47
2018-12-26T08:02:52.096Z,-0.54
2018-12-26T08:03:55.123Z,-0.54
2018-12-26T08:04:58.371Z,-0.56
2018-12-26T08:06:01.378Z,-0.62
2018-12-26T08:07:04.413Z,-0.58
2018-12-26T08:08:07.510Z,-0.58
2018-12-26T08:09:10.647Z,-0.58
2018-12-26T08:10:13.638Z,-0.48
2018-12-26T08:11:16.844Z,-0.55
2018-12-26T08:12:19.848Z,-0.55
2018-12-26T08:13:22.805Z,-0.56
2018-12-26T08:14:25.810Z,-0.56
2018-12-26T08:15:28.763Z,-0.53
2018-12-26T08:16:31.668Z,-0.53
2018-12-26T08:17:34.912Z,-0.62
2018-12-26T08:18:37.816Z,-0.62
2018-12-26T08:19:40.779Z,-0.56
2018-12-26T08:20:43.691Z,-0.56
2018-12-26T08:21:48.202Z,-0.54
2018-12-26T08:22:51.216Z,-0.65
2018-12-26T08:23:54.526Z,-0.65
2018-12-26T08:24:57.560Z,-0.53
2018-12-26T08:26:00.474Z,-0.48
2018-12-26T08:27:03.391Z,-0.45
2018-12-26T08:28:06.717Z,-0.45
2018-12-26T08:29:11.952Z,-0.47
2018-12-26T08:30:15.279Z,-0.47
2018-12-26T08:31:18.232Z,-0.47
2018-12-26T08:32:21.255Z,-0.52
2018-12-26T08:33:24.576Z,-0.43
2018-12-26T08:34:28.384Z,-0.43
2018-12-26T08:35:31.311Z,-0.44
2018-12-26T08:36:37.301Z,-0.56
2018-12-26T08:37:40.259Z,-0.60
2018-12-26T08:38:43.212Z,-0.60
2018-12-26T08:39:46.182Z,-0.40
2018-12-26T08:40:50.071Z,-0.45
2018-12-26T08:41:53.997Z,-0.49
2018-12-26T08:42:57.370Z,-0.49
2018-12-26T08:44:00.385Z,-0.34
2018-12-26T08:45:03.313Z,-0.50
2018-12-26T08:46:09.121Z,-0.63
2018-12-26T08:47:12.558Z,-0.68
2018-12-26T08:48:15.458Z,-0.71
2018-12-26T08:49:18.817Z,-0.69
2018-12-26T08:50:21.815Z,-0.69
2018-12-26T08:51:24.735Z,-0.74
2018-12-26T08:52:31.489Z,-0.61
2018-12-26T08:53:34.432Z,-0.50
2018-12-26T08:54:37.536Z,-0.50
2018-12-26T08:55:40.948Z,-0.32
2018-12-26T08:56:44.411Z,-0.25
2018-12-26T08:57:50.465Z,-0.33
2018-12-26T08:58:55.414Z,-0.33
2018-12-26T08:59:58.351Z,-0.29
2018-12-26T09:01:01.365Z,-0.29
2018-12-26T09:02:04.713Z,-0.26
2018-12-26T09:03:07.705Z,-0.26
2018-12-26T09:04:11.028Z,-0.34
2018-12-26T09:05:13.947Z,-0.34
2018-12-26T09:06:18.292Z,-0.17
2018-12-26T09:07:21.382Z,-0.20
2018-12-26T09:08:24.781Z,-0.20
2018-12-26T09:09:27.703Z,-0.31
2018-12-26T09:10:30.648Z,-0.34
2018-12-26T09:11:36.941Z,-0.35
2018-12-26T09:12:42.237Z,-0.36
2018-12-26T09:13:45.143Z,-0.26
2018-12-26T09:14:50.436Z,-0.27
2018-12-26T09:15:54.730Z,-0.25
2018-12-26T09:16:57.781Z,-0.27
2018-12-26T09:18:00.696Z,-0.34
2018-12-26T09:19:04.171Z,-0.22
2018-12-26T09:20:09.685Z,-0.07
2018-12-26T09:21:14.215Z,-0.15
2018-12-26T09:22:17.132Z,-0.33
2018-12-26T09:23:29.086Z,-0.37
2018-12-26T09:24:32.024Z,-0.43
2018-12-26T09:25:36.373Z,-0.43
2018-12-26T09:26:39.490Z,-0.29
2018-12-26T09:27:42.965Z,-0.25
2018-12-26T09:28:46.297Z,-0.34
2018-12-26T09:29:49.241Z,-0.41
2018-12-26T09:30:52.734Z,-0.47
2018-12-26T09:31:55.665Z,-0.39
2018-12-26T09:32:58.687Z,-0.49
2018-12-26T09:34:01.988Z,-0.51
2018-12-26T09:35:04.936Z,-0.48
2018-12-26T09:36:09.019Z,-0.45
2018-12-26T09:37:12.033Z,-0.46
2018-12-26T09:38:16.731Z,-0.36
2018-12-26T09:39:22.619Z,-0.33
2018-12-26T09:40:32.109Z,-0.39
2018-12-26T09:41:38.432Z,-0.33
2018-12-26T09:42:41.365Z,-0.30
2018-12-26T09:43:44.396Z,-0.22
2018-12-26T09:44:54.364Z,-0.09
2018-12-26T09:45:52.016Z,-0.01
2018-12-26T09:46:55.287Z,-0.01
2018-12-26T09:47:58.229Z,0.11
2018-12-26T09:49:01.607Z,0.24
2018-12-26T09:50:04.627Z,0.25
2018-12-26T09:51:07.987Z,0.25
2018-12-26T09:52:11.401Z,0.06
2018-12-26T09:53:14.728Z,0.06
2018-12-26T09:54:18.199Z,0.05
2018-12-26T09:55:21.120Z,0.07
2018-12-26T09:56:25.613Z,0.27
2018-12-26T09:57:28.583Z,0.27
2018-12-26T09:58:31.608Z,0.24
2018-12-26T09:59:34.828Z,0.23
2018-12-26T10:00:37.790Z,0.21
2018-12-26T10:01:41.672Z,0.19
2018-12-26T10:02:48.067Z,0.22
2018-12-26T10:03:50.996Z,0.10
2018-12-26T10:04:54.028Z,0.10
2018-12-26T10:05:57.271Z,0.26
2018-12-26T10:07:00.286Z,0.58
2018-12-26T10:08:03.351Z,0.58
2018-12-26T10:09:06.317Z,0.62
2018-12-26T10:10:09.348Z,0.62
2018-12-26T10:11:12.326Z,0.61
2018-12-26T10:12:15.273Z,0.66
2018-12-26T10:13:18.207Z,0.49
2018-12-26T10:14:21.191Z,0.40
2018-12-26T10:15:27.957Z,0.41
2018-12-26T10:16:39.103Z,0.43
2018-12-26T10:17:41.805Z,0.47
2018-12-26T10:18:44.733Z,0.47
2018-12-26T10:19:47.753Z,0.47
2018-12-26T10:20:50.643Z,0.41
2018-12-26T10:21:53.635Z,0.41
2018-12-26T10:22:56.902Z,0.46
2018-12-26T10:23:59.857Z,0.64
2018-12-26T10:25:03.033Z,0.64
2018-12-26T10:26:05.956Z,0.65
2018-12-26T10:27:08.887Z,0.65
2018-12-26T10:28:11.788Z,0.73
2018-12-26T10:29:17.421Z,0.77
2018-12-26T10:30:20.421Z,0.77
2018-12-26T10:31:23.461Z,0.92
2018-12-26T10:32:26.387Z,0.91
2018-12-26T10:33:29.903Z,0.90
2018-12-26T10:34:32.821Z,0.98
2018-12-26T10:35:36.208Z,0.98
2018-12-26T10:36:39.270Z,1.07
2018-12-26T10:37:42.666Z,1.12
2018-12-26T10:38:45.578Z,1.19
2018-12-26T10:39:48.509Z,1.27
2018-12-26T10:40:51.445Z,1.09
2018-12-26T10:41:54.474Z,1.03
2018-12-26T10:42:58.709Z,1.01
2018-12-26T10:44:01.642Z,1.08
2018-12-26T10:45:04.953Z,1.18
2018-12-26T10:46:07.866Z,1.18
2018-12-26T10:47:12.898Z,1.16
2018-12-26T10:48:15.869Z,1.11
2018-12-26T10:49:18.852Z,1.11
2018-12-26T10:50:22.226Z,1.01
2018-12-26T10:51:25.157Z,0.96
2018-12-26T10:52:28.232Z,0.94
2018-12-26T10:53:33.169Z,0.87
2018-12-26T10:54:36.079Z,0.83
2018-12-26T10:55:38.992Z,0.83
2018-12-26T10:56:41.924Z,1.02
2018-12-26T10:57:45.276Z,0.87
2018-12-26T10:58:48.659Z,0.73
2018-12-26T10:59:51.946Z,0.81
2018-12-26T11:00:54.993Z,0.69
2018-12-26T11:02:07.934Z,0.58
2018-12-26T11:03:14.363Z,0.58
2018-12-26T11:04:17.277Z,0.57
2018-12-26T11:05:20.205Z,0.76
2018-12-26T11:06:38.139Z,0.91
2018-12-26T11:07:41.646Z,0.91
2018-12-26T11:08:47.487Z,1.06
2018-12-26T11:09:53.710Z,1.21
2018-12-26T11:10:56.208Z,0.83
2018-12-26T11:12:01.536Z,0.83
2018-12-26T11:13:04.874Z,0.73
2018-12-26T11:14:08.131Z,0.73
2018-12-26T11:15:11.044Z,0.78
2018-12-26T11:16:13.986Z,0.68
2018-12-26T11:17:16.928Z,1.04
2018-12-26T11:18:21.319Z,1.09
2018-12-26T11:19:25.876Z,1.04
2018-12-26T11:20:29.338Z,1.18
2018-12-26T11:21:32.349Z,1.24
2018-12-26T11:22:36.121Z,1.27
2018-12-26T11:23:43.128Z,1.25
2018-12-26T11:24:46.499Z,1.28
2018-12-26T11:25:49.840Z,1.33
2018-12-26T11:26:52.848Z,1.34
2018-12-26T11:27:55.784Z,1.41
2018-12-26T11:29:00.957Z,1.41
2018-12-26T11:42:47.134Z,1.04
2018-12-26T11:43:50.382Z,1.09
2018-12-26T11:44:53.407Z,1.09
2018-12-26T11:45:58.049Z,1.20
2018-12-26T11:47:04.873Z,1.27
2018-12-26T11:48:11.142Z,1.26
2018-12-26T11:49:18.099Z,1.36
2018-12-26T11:50:23.378Z,1.41
2018-12-26T11:51:28.134Z,1.48
2018-12-26T11:52:34.889Z,1.48
2018-12-26T11:53:37.863Z,1.66
2018-12-26T11:54:43.711Z,1.67
2018-12-26T11:55:46.666Z,1.67
2018-12-26T11:56:49.699Z,1.69
2018-12-26T11:57:54.333Z,1.69
2018-12-26T11:58:57.299Z,1.64
2018-12-26T12:00:00.211Z,1.64
2018-12-26T12:01:03.579Z,1.68
2018-12-26T12:02:06.609Z,1.74
2018-12-26T12:03:10.000Z,1.66
2018-12-26T12:04:13.181Z,1.70
2018-12-26T12:05:16.423Z,1.72
2018-12-26T12:06:21.117Z,1.73
2018-12-26T12:07:24.361Z,1.73
2018-12-26T12:08:27.280Z,1.70
2018-12-26T12:09:33.603Z,1.69
2018-12-26T12:10:39.322Z,1.76
2018-12-26T12:11:42.365Z,1.75
2018-12-26T12:12:45.565Z,1.78
2018-12-26T12:13:54.488Z,1.81
2018-12-26T12:15:03.391Z,1.84
2018-12-26T12:16:06.337Z,1.87
2018-12-26T12:17:09.572Z,1.95
2018-12-26T12:18:15.148Z,1.98
2018-12-26T12:19:20.274Z,1.98
2018-12-26T12:20:23.660Z,2.13
2018-12-26T12:21:26.668Z,2.17
2018-12-26T12:22:29.614Z,2.19
2018-12-26T12:23:32.642Z,2.23
2018-12-26T12:24:36.668Z,2.28
2018-12-26T12:25:39.581Z,2.33
2018-12-26T12:26:43.414Z,2.24
2018-12-26T12:27:46.358Z,2.14
2018-12-26T12:28:49.628Z,2.13
2018-12-26T12:29:54.872Z,2.13
2018-12-26T12:31:00.116Z,2.11
2018-12-26T12:32:03.121Z,2.15
2018-12-26T12:33:06.061Z,2.15
2018-12-26T12:34:12.724Z,2.04
2018-12-26T12:35:15.934Z,2.01
2018-12-26T12:36:18.939Z,2.05
2018-12-26T12:37:21.864Z,2.06
2018-12-26T12:38:26.183Z,2.06
2018-12-26T12:39:29.223Z,2.04
2018-12-26T12:40:32.219Z,2.04
2018-12-26T12:41:35.147Z,2.09
2018-12-26T12:42:38.070Z,2.09
2018-12-26T12:43:44.053Z,2.08
2018-12-26T12:44:47.351Z,2.04
2018-12-26T12:45:50.274Z,2.10
2018-12-26T12:46:53.223Z,2.10
2018-12-26T12:47:56.232Z,2.13
2018-12-26T12:48:59.173Z,2.13
2018-12-26T12:50:02.290Z,2.16
2018-12-26T12:51:05.553Z,2.24
2018-12-26T12:52:08.678Z,2.30
2018-12-26T12:53:11.603Z,2.30
2018-12-26T12:54:15.944Z,2.35
2018-12-26T12:55:18.980Z,2.31
2018-12-26T12:56:21.881Z,2.31
2018-12-26T12:57:25.712Z,2.23
2018-12-26T12:58:28.722Z,2.25
2018-12-26T12:59:31.667Z,2.30
2018-12-26T13:00:38.313Z,2.26
2018-12-26T13:01:41.308Z,2.26
2018-12-26T13:02:44.318Z,2.38
2018-12-26T13:03:47.807Z,2.39
2018-12-26T13:04:50.711Z,2.38
2018-12-26T13:05:53.754Z,2.31
2018-12-26T13:06:56.843Z,2.24
2018-12-26T13:07:59.925Z,2.22
2018-12-26T13:09:07.150Z,2.22
2018-12-26T13:10:11.683Z,2.24
2018-12-26T13:11:15.994Z,2.06
2018-12-26T13:12:21.615Z,2.13
2018-12-26T13:13:24.603Z,2.26
2018-12-26T13:14:31.428Z,2.26
2018-12-26T13:15:34.848Z,2.36
2018-12-26T13:16:41.309Z,2.33
2018-12-26T13:17:44.667Z,2.33
2018-12-26T13:18:47.658Z,2.31
2018-12-26T13:19:50.678Z,2.28
2018-12-26T13:20:54.132Z,2.28
2018-12-26T13:22:02.329Z,2.31
2018-12-26T13:23:05.325Z,2.31
2018-12-26T13:24:08.245Z,2.32
2018-12-26T13:25:11.193Z,2.32
2018-12-26T13:26:14.185Z,2.27
2018-12-26T13:27:17.125Z,2.24
2018-12-26T13:28:22.256Z,2.25
2018-12-26T13:29:25.227Z,2.30
2018-12-26T13:30:28.142Z,2.34
2018-12-26T13:31:31.205Z,2.36
2018-12-26T13:32:34.299Z,2.36
2018-12-26T13:33:37.232Z,2.10
2018-12-26T13:34:40.584Z,2.06
2018-12-26T13:35:43.538Z,2.11
2018-12-26T13:36:46.573Z,2.22
2018-12-26T13:37:49.552Z,2.33
2018-12-26T13:38:52.603Z,2.37
2018-12-26T13:39:55.731Z,2.24
2018-12-26T13:40:58.681Z,1.96
2018-12-26T13:42:01.689Z,1.96
2018-12-26T13:43:04.857Z,2.01
2018-12-26T13:44:07.770Z,2.01
2018-12-26T13:45:10.723Z,2.05
2018-12-26T13:46:14.051Z,2.15
2018-12-26T13:47:17.085Z,2.22
2018-12-26T13:48:21.384Z,2.29
2018-12-26T13:49:27.444Z,2.28
2018-12-26T13:50:31.096Z,2.27
2018-12-26T13:51:42.266Z,2.29
2018-12-26T13:52:48.139Z,2.31
2018-12-26T13:53:53.370Z,2.30
2018-12-26T13:54:56.333Z,2.30
2018-12-26T13:55:59.286Z,2.34
2018-12-26T13:57:03.510Z,2.37
2018-12-26T13:58:18.748Z,2.45
2018-12-26T13:59:24.115Z,2.40
2018-12-26T14:00:31.252Z,2.48
2018-12-26T14:01:43.068Z,2.45
2018-12-26T14:02:41.596Z,2.41
2018-12-26T14:03:44.637Z,2.47
2018-12-26T14:04:51.651Z,2.46
2018-12-26T14:05:56.759Z,2.53
2018-12-26T14:07:00.142Z,2.53
2018-12-26T14:08:05.487Z,2.57
2018-12-26T14:09:09.713Z,2.58
2018-12-26T14:10:13.108Z,2.51
2018-12-26T14:11:17.449Z,2.55
2018-12-26T14:12:20.432Z,2.55
2018-12-26T14:13:23.338Z,2.55
2018-12-26T14:14:26.369Z,2.53
2018-12-26T14:15:29.873Z,2.51